KAIA/AIA METAR and TAF weather

Enter ICAO airport designator
Station Type Date Time Source
KAIA METAR 2022/06/30 13:53 UTC NOAA

KAIA 301353Z AUTO 31008KT 10SM CLR 21/10 A3003 RMK AO2 SLP120 T02110100


Station Type Date Time Source
KAIA Decoded METAR 2022/06/30 13:53 UTC NOAA

ALLIANCE MUNICIPAL AIRPORT, NE, United States (KAIA) 42-03N 102-48W 1196M
Jun 30, 2022 - 09:53 AM EDT / 2022.06.30 1353 UTC
Wind: from the NW (310 degrees) at 9 MPH (8 KT):0
Visibility: 10 mile(s):0
Sky conditions: clear
Temperature: 70.0 F (21.1 C)
Dew Point: 50.0 F (10.0 C)
Relative Humidity: 49%
Pressure (altimeter): 30.03 in. Hg (1016 hPa)
ob: KAIA 301353Z AUTO 31008KT 10SM CLR 21/10 A3003 RMK AO2 SLP120 T02110100
cycle: 14

Station Type Date Time Source
KAIA TAF 2022/06/30 12:22 UTC NOAA

TAF KAIA 301120Z 3012/0112 VRB06KT P6SM BKN250
FM301400 33012KT P6SM BKN250
FM302100 04011KT P6SM VCTS BKN100CB
FM010000 21010G20KT 2SM TSRA OVC050CB
FM010200 15010G20KT P6SM -TSRA OVC050CB
FM010800 17007KT P6SM VCTS BKN100CB

Example: see airport list